createdAt,value
2023-02-16T00:00:46.198Z,18.63
2023-02-16T00:03:24.567Z,18.40
2023-02-16T00:05:51.929Z,18.40
2023-02-16T00:08:21.543Z,18.35
2023-02-16T00:11:11.408Z,18.42
2023-02-16T00:13:45.459Z,19.70
2023-02-16T00:16:18.389Z,18.58
2023-02-16T00:18:46.121Z,19.33
2023-02-16T00:21:16.691Z,19.10
2023-02-16T00:23:44.115Z,18.83
2023-02-16T00:26:26.745Z,19.30
2023-02-16T00:28:58.611Z,19.73
2023-02-16T00:31:29.107Z,19.15
2023-02-16T00:33:56.696Z,18.50
2023-02-16T00:36:25.063Z,16.90
2023-02-16T00:38:54.592Z,17.27
2023-02-16T00:41:43.028Z,17.13
2023-02-16T00:44:16.989Z,18.40
2023-02-16T00:46:47.752Z,17.60
2023-02-16T00:49:19.060Z,18.30
2023-02-16T00:51:47.112Z,18.38
2023-02-16T00:54:17.575Z,18.00
2023-02-16T00:56:45.822Z,17.40
2023-02-16T00:59:24.380Z,16.88
2023-02-16T01:01:51.911Z,17.25
2023-02-16T01:04:23.719Z,17.08
2023-02-16T01:07:11.821Z,17.60
2023-02-16T01:09:57.841Z,17.60
2023-02-16T01:12:25.170Z,16.88
2023-02-16T01:14:56.560Z,17.35
2023-02-16T01:17:27.339Z,17.95
2023-02-16T01:19:55.041Z,17.27
2023-02-16T01:22:22.330Z,17.02
2023-02-16T01:24:49.629Z,16.88
2023-02-16T01:27:16.889Z,18.30
2023-02-16T01:29:44.185Z,19.05
2023-02-16T01:32:13.153Z,18.95
2023-02-16T01:34:40.603Z,18.42
2023-02-16T01:37:16.862Z,18.67
2023-02-16T01:39:44.577Z,17.77
2023-02-16T01:42:32.114Z,18.92
2023-02-16T01:45:11.138Z,18.40
2023-02-16T01:47:42.484Z,20.02
2023-02-16T01:50:25.075Z,19.52
2023-02-16T01:53:03.859Z,18.58
2023-02-16T01:55:37.893Z,20.08
2023-02-16T01:58:47.190Z,19.42
2023-02-16T02:01:38.574Z,18.27
2023-02-16T02:04:44.482Z,18.08
2023-02-16T02:07:29.318Z,18.50
2023-02-16T02:10:21.880Z,18.85
2023-02-16T02:13:15.927Z,18.53
2023-02-16T02:15:43.278Z,17.30
2023-02-16T02:18:10.553Z,18.50
2023-02-16T02:21:14.626Z,18.40
2023-02-16T02:24:13.291Z,17.88
2023-02-16T02:27:04.037Z,19.20
2023-02-16T02:29:52.393Z,20.08
2023-02-16T02:32:37.421Z,19.23
2023-02-16T02:35:26.578Z,19.02
2023-02-16T02:38:05.558Z,19.40
2023-02-16T02:40:38.754Z,19.53
2023-02-16T02:43:17.032Z,19.83
2023-02-16T02:46:00.026Z,18.15
2023-02-16T02:48:31.793Z,18.48
2023-02-16T02:54:19.956Z,17.95
2023-02-16T02:57:13.673Z,19.40
2023-02-16T03:00:05.474Z,18.58
2023-02-16T03:02:34.566Z,20.25
2023-02-16T03:05:07.687Z,22.77
2023-02-16T03:07:51.814Z,19.70
2023-02-16T03:10:45.466Z,20.60
2023-02-16T03:13:24.365Z,20.73
2023-02-16T03:15:56.026Z,19.57
2023-02-16T03:18:46.098Z,19.27
2023-02-16T03:21:34.121Z,18.77
2023-02-16T03:24:24.232Z,18.63
2023-02-16T03:27:11.887Z,18.88
2023-02-16T03:29:39.882Z,20.07
2023-02-16T03:32:09.596Z,19.25
2023-02-16T03:34:37.651Z,17.83
2023-02-16T03:37:09.795Z,19.42
2023-02-16T03:39:57.082Z,17.75
2023-02-16T03:42:24.879Z,19.02
2023-02-16T03:44:52.609Z,17.90
2023-02-16T03:47:19.901Z,18.10
2023-02-16T03:49:49.794Z,17.38
2023-02-16T03:52:59.838Z,18.05
2023-02-16T03:55:57.797Z,17.23
2023-02-16T03:58:37.436Z,15.93
2023-02-16T04:01:07.323Z,16.57
2023-02-16T04:04:02.597Z,16.03
2023-02-16T04:06:41.909Z,16.90
2023-02-16T04:09:19.229Z,16.60
2023-02-16T04:12:08.312Z,17.70
2023-02-16T04:14:37.774Z,16.83
2023-02-16T04:17:17.296Z,16.65
2023-02-16T04:19:44.579Z,16.07
2023-02-16T04:22:11.840Z,17.07
2023-02-16T04:27:20.265Z,16.70
2023-02-16T04:29:47.528Z,17.13
2023-02-16T04:35:26.995Z,17.13
2023-02-16T04:36:38.629Z,18.40
2023-02-16T04:37:56.738Z,17.03
2023-02-16T04:40:24.086Z,16.63
2023-02-16T04:42:53.810Z,17.90
2023-02-16T04:45:21.287Z,17.33
2023-02-16T04:47:48.662Z,17.37
2023-02-16T04:50:25.038Z,17.80
2023-02-16T04:52:52.661Z,17.40
2023-02-16T04:55:53.816Z,19.40
2023-02-16T04:58:21.060Z,18.90
2023-02-16T05:00:48.317Z,18.42
2023-02-16T05:03:23.769Z,17.77
2023-02-16T05:05:51.099Z,19.20
2023-02-16T05:08:20.768Z,18.02
2023-02-16T05:11:08.114Z,17.90
2023-02-16T05:17:06.346Z,19.20
2023-02-16T05:19:33.750Z,18.60
2023-02-16T05:22:01.173Z,17.70
2023-02-16T05:24:28.624Z,18.05
2023-02-16T05:26:55.875Z,17.27
2023-02-16T05:29:23.281Z,18.43
2023-02-16T05:32:12.515Z,17.08
2023-02-16T05:34:42.102Z,18.40
2023-02-16T05:37:11.464Z,16.95
2023-02-16T05:39:44.978Z,17.13
2023-02-16T05:42:12.443Z,17.40
2023-02-16T05:44:42.122Z,16.00
2023-02-16T05:47:09.375Z,15.80
2023-02-16T05:52:12.990Z,16.02
2023-02-16T05:55:04.918Z,17.45
2023-02-16T05:57:36.838Z,16.02
2023-02-16T06:00:06.964Z,16.37
2023-02-16T06:02:46.781Z,17.17
2023-02-16T06:05:14.100Z,16.53
2023-02-16T06:08:05.999Z,15.93
2023-02-16T06:11:07.062Z,16.85
2023-02-16T06:13:34.601Z,16.20
2023-02-16T06:20:40.686Z,15.87
2023-02-16T06:23:49.299Z,14.80
2023-02-16T06:26:21.404Z,17.30
2023-02-16T06:29:13.442Z,15.97
2023-02-16T06:35:13.174Z,14.82
2023-02-16T06:38:01.640Z,15.40
2023-02-16T06:40:46.659Z,14.97
2023-02-16T06:43:22.151Z,16.40
2023-02-16T06:46:04.996Z,15.90
2023-02-16T06:48:44.276Z,15.60
2023-02-16T06:51:52.896Z,14.37
2023-02-16T06:54:22.694Z,14.30
2023-02-16T06:56:52.402Z,13.87
2023-02-16T06:59:21.900Z,14.23
2023-02-16T07:01:51.950Z,14.53
2023-02-16T07:04:19.286Z,14.67
2023-02-16T07:07:44.978Z,14.43
2023-02-16T07:10:34.653Z,14.20
2023-02-16T07:13:07.574Z,13.10
2023-02-16T07:15:37.393Z,13.43
2023-02-16T07:18:05.163Z,14.03
2023-02-16T07:20:34.916Z,12.63
2023-02-16T07:23:02.145Z,13.02
2023-02-16T07:25:31.929Z,13.50
2023-02-16T07:28:01.979Z,13.70
2023-02-16T07:30:29.371Z,12.80
2023-02-16T07:33:19.735Z,13.40
2023-02-16T07:35:56.255Z,12.60
2023-02-16T07:38:23.486Z,13.90
2023-02-16T07:40:53.346Z,12.30
2023-02-16T07:43:25.063Z,12.53
2023-02-16T07:45:52.544Z,11.07
2023-02-16T07:48:20.150Z,12.23
2023-02-16T07:51:31.769Z,12.50
2023-02-16T07:54:16.230Z,14.45
2023-02-16T07:56:43.968Z,13.57
2023-02-16T08:01:42.790Z,12.77
2023-02-16T08:06:53.979Z,13.73
2023-02-16T08:09:21.314Z,13.03
2023-02-16T08:11:48.564Z,12.73
2023-02-16T08:14:16.450Z,13.25
2023-02-16T08:16:58.609Z,14.90
2023-02-16T08:22:14.237Z,14.27
2023-02-16T08:24:41.466Z,12.73
2023-02-16T08:27:09.104Z,13.80
2023-02-16T08:32:17.254Z,13.70
2023-02-16T08:34:47.778Z,14.50
2023-02-16T08:37:15.110Z,12.43
2023-02-16T08:39:42.673Z,13.97
2023-02-16T08:42:21.969Z,12.73
2023-02-16T08:44:59.509Z,12.63
2023-02-16T08:47:32.664Z,13.48
2023-02-16T08:50:32.845Z,13.82
2023-02-16T08:53:02.470Z,13.20
2023-02-16T08:55:30.751Z,13.13
2023-02-16T08:57:59.360Z,13.10
2023-02-16T09:00:44.967Z,14.75
2023-02-16T09:03:16.563Z,14.68
2023-02-16T09:05:44.607Z,14.52
2023-02-16T09:08:28.998Z,14.57
2023-02-16T09:11:51.731Z,14.07
2023-02-16T09:14:19.908Z,14.63
2023-02-16T09:17:36.660Z,13.77
2023-02-16T09:20:33.287Z,15.52
2023-02-16T09:23:00.544Z,14.05
2023-02-16T09:25:27.802Z,13.88
2023-02-16T09:27:59.659Z,13.27
2023-02-16T09:33:21.822Z,13.80
2023-02-16T09:35:49.633Z,13.93
2023-02-16T09:38:25.571Z,16.10
2023-02-16T09:40:53.396Z,14.73
2023-02-16T09:43:46.278Z,15.27
2023-02-16T09:46:22.493Z,14.30
2023-02-16T09:48:54.012Z,15.18
2023-02-16T09:51:34.432Z,14.70
2023-02-16T09:54:34.955Z,14.65
2023-02-16T09:57:12.764Z,14.70
2023-02-16T10:00:04.605Z,13.75
2023-02-16T10:02:43.712Z,14.32
2023-02-16T10:05:26.086Z,13.02
2023-02-16T10:08:01.994Z,12.95
2023-02-16T10:10:35.350Z,13.48
2023-02-16T10:13:16.945Z,13.55
2023-02-16T10:15:46.250Z,14.15
2023-02-16T10:18:30.865Z,14.25
2023-02-16T10:21:05.176Z,15.32
2023-02-16T10:23:46.536Z,13.77
2023-02-16T10:26:13.845Z,14.70
2023-02-16T10:28:52.595Z,15.10
2023-02-16T10:31:43.761Z,15.07
2023-02-16T10:34:23.434Z,14.85
2023-02-16T10:37:01.759Z,15.68
2023-02-16T10:39:42.459Z,14.43
2023-02-16T10:42:27.142Z,15.23
2023-02-16T10:45:15.788Z,15.60
2023-02-16T10:47:47.264Z,16.23
2023-02-16T10:50:21.215Z,17.90
2023-02-16T10:52:49.512Z,17.55
2023-02-16T10:55:17.023Z,16.55
2023-02-16T10:57:54.199Z,17.52
2023-02-16T11:00:31.784Z,15.95
2023-02-16T11:03:05.056Z,15.77
2023-02-16T11:05:34.981Z,15.32
2023-02-16T11:08:03.435Z,15.52
2023-02-16T11:10:55.701Z,16.63
2023-02-16T11:13:32.523Z,15.13
2023-02-16T11:16:14.751Z,16.30
2023-02-16T11:18:45.849Z,16.17
2023-02-16T11:21:13.368Z,17.70
2023-02-16T11:23:42.554Z,18.35
2023-02-16T11:26:12.820Z,19.15
2023-02-16T11:28:48.585Z,17.80
2023-02-16T11:31:40.366Z,19.88
2023-02-16T11:34:27.095Z,21.05
2023-02-16T11:37:07.526Z,20.73
2023-02-16T11:39:41.044Z,21.83
2023-02-16T11:42:32.006Z,21.23
2023-02-16T11:45:01.758Z,21.65
2023-02-16T11:47:36.102Z,21.80
2023-02-16T11:50:26.117Z,20.25
2023-02-16T11:53:12.231Z,18.75
2023-02-16T11:55:48.042Z,20.25
2023-02-16T11:58:21.733Z,18.95
2023-02-16T12:01:19.375Z,20.00
2023-02-16T12:04:13.844Z,19.05
2023-02-16T12:06:51.799Z,17.88
2023-02-16T12:09:25.002Z,19.77
2023-02-16T12:12:12.535Z,18.38
2023-02-16T12:14:51.395Z,17.83
2023-02-16T12:17:54.899Z,17.70
2023-02-16T12:20:59.842Z,17.25
2023-02-16T12:23:51.524Z,17.60
2023-02-16T12:26:21.557Z,18.25
2023-02-16T12:29:08.496Z,18.38
2023-02-16T12:32:16.079Z,18.30
2023-02-16T12:34:58.474Z,18.05
2023-02-16T12:38:00.112Z,17.23
2023-02-16T12:41:08.944Z,18.40
2023-02-16T12:43:48.299Z,19.08
2023-02-16T12:46:42.106Z,18.50
2023-02-16T12:49:15.070Z,20.27
2023-02-16T12:52:07.042Z,18.90
2023-02-16T12:54:49.660Z,18.45
2023-02-16T12:57:23.003Z,17.65
2023-02-16T13:00:15.191Z,18.17
2023-02-16T13:02:51.544Z,26.13
2023-02-16T13:05:25.968Z,20.90
2023-02-16T13:07:58.191Z,17.90
2023-02-16T13:10:35.320Z,19.27
2023-02-16T13:13:20.701Z,19.55
2023-02-16T13:16:03.723Z,18.25
2023-02-16T13:18:39.964Z,17.02
2023-02-16T13:21:42.456Z,16.77
2023-02-16T13:24:19.653Z,15.85
2023-02-16T13:27:11.469Z,17.15
2023-02-16T13:30:04.455Z,16.45
2023-02-16T13:32:43.694Z,17.15
2023-02-16T13:35:13.834Z,16.23
2023-02-16T13:37:44.053Z,15.75
2023-02-16T13:41:02.002Z,15.80
2023-02-16T13:44:08.450Z,16.55
2023-02-16T13:46:52.537Z,15.80
2023-02-16T13:49:46.489Z,16.67
2023-02-16T13:52:39.498Z,17.80
2023-02-16T13:55:22.325Z,17.50
2023-02-16T13:57:51.784Z,16.55
2023-02-16T14:00:43.903Z,16.85
2023-02-16T14:03:21.891Z,17.05
2023-02-16T14:05:54.336Z,16.90
2023-02-16T14:08:30.795Z,16.38
2023-02-16T14:11:04.414Z,17.52
2023-02-16T14:13:37.580Z,15.90
2023-02-16T14:16:18.029Z,15.88
2023-02-16T14:18:55.881Z,18.05
2023-02-16T14:21:35.434Z,17.95
2023-02-16T14:24:06.428Z,16.50
2023-02-16T14:27:11.623Z,16.70
2023-02-16T14:29:54.847Z,16.35
2023-02-16T14:32:38.663Z,17.77
2023-02-16T14:35:20.157Z,16.95
2023-02-16T14:37:53.464Z,16.60
2023-02-16T14:40:34.760Z,17.33
2023-02-16T14:43:09.549Z,17.45
2023-02-16T14:45:58.147Z,16.27
2023-02-16T14:48:44.969Z,16.52
2023-02-16T14:51:32.435Z,18.00
2023-02-16T14:54:27.108Z,17.27
2023-02-16T14:57:01.574Z,16.85
2023-02-16T14:59:35.465Z,16.75
2023-02-16T15:02:26.756Z,17.48
2023-02-16T15:04:54.097Z,16.60
2023-02-16T15:07:24.065Z,17.10
2023-02-16T15:09:57.269Z,18.23
2023-02-16T15:12:30.472Z,17.88
2023-02-16T15:15:03.560Z,17.35
2023-02-16T15:17:41.515Z,17.88
2023-02-16T15:20:11.523Z,17.65
2023-02-16T15:22:44.322Z,17.60
2023-02-16T15:25:20.946Z,17.15
2023-02-16T15:28:00.616Z,17.65
2023-02-16T15:30:33.953Z,17.67
2023-02-16T15:33:07.392Z,17.20
2023-02-16T15:35:36.975Z,18.23
2023-02-16T15:38:09.922Z,17.98
2023-02-16T15:40:37.634Z,17.77
2023-02-16T15:43:18.780Z,18.08
2023-02-16T15:45:54.901Z,18.10
2023-02-16T15:48:33.947Z,16.83
2023-02-16T15:51:08.790Z,16.77
2023-02-16T15:53:59.143Z,16.90
2023-02-16T15:56:50.727Z,17.27
2023-02-16T15:59:23.845Z,16.85
2023-02-16T16:02:03.764Z,17.38
2023-02-16T16:04:32.031Z,18.17
2023-02-16T16:07:37.183Z,17.25
2023-02-16T16:10:30.730Z,17.33
2023-02-16T16:13:06.661Z,22.70
2023-02-16T16:15:50.652Z,24.23
2023-02-16T16:18:53.469Z,21.23
2023-02-16T16:21:35.873Z,19.30
2023-02-16T16:24:09.346Z,18.13
2023-02-16T16:26:52.889Z,18.17
2023-02-16T16:29:36.443Z,18.70
2023-02-16T16:32:06.357Z,20.13
2023-02-16T16:34:41.061Z,19.13
2023-02-16T16:37:30.698Z,18.70
2023-02-16T16:40:07.811Z,18.20
2023-02-16T16:42:40.778Z,18.55
2023-02-16T16:45:39.918Z,16.95
2023-02-16T16:48:20.799Z,17.92
2023-02-16T16:50:48.979Z,17.77
2023-02-16T16:53:28.630Z,17.08
2023-02-16T16:56:01.197Z,18.45
2023-02-16T16:58:29.416Z,17.75
2023-02-16T17:01:06.161Z,18.48
2023-02-16T17:03:33.549Z,20.10
2023-02-16T17:06:19.764Z,18.40
2023-02-16T17:08:49.477Z,19.50
2023-02-16T17:11:48.780Z,20.58
2023-02-16T17:14:17.997Z,18.27
2023-02-16T17:16:50.989Z,18.75
2023-02-16T17:22:54.280Z,18.25
2023-02-16T17:25:21.710Z,18.20
2023-02-16T17:27:52.040Z,19.05
2023-02-16T17:30:19.422Z,19.05
2023-02-16T17:33:10.265Z,22.52
2023-02-16T17:35:51.562Z,22.63
2023-02-16T17:38:21.531Z,20.73
2023-02-16T17:40:56.050Z,19.67
2023-02-16T17:43:25.342Z,19.23
2023-02-16T17:45:54.822Z,18.95
2023-02-16T17:48:26.102Z,20.52
2023-02-16T17:50:54.264Z,19.50
2023-02-16T17:53:46.166Z,18.63
2023-02-16T17:56:18.667Z,19.65
2023-02-16T17:58:52.153Z,20.58
2023-02-16T18:01:22.941Z,20.25
2023-02-16T18:03:50.556Z,20.80
2023-02-16T18:06:28.180Z,21.17
2023-02-16T18:08:56.528Z,20.83
2023-02-16T18:11:26.290Z,23.20
2023-02-16T18:13:59.157Z,22.45
2023-02-16T18:16:28.214Z,22.45
2023-02-16T18:18:57.339Z,22.77
2023-02-16T18:21:24.761Z,23.30
2023-02-16T18:23:54.317Z,24.02
2023-02-16T18:26:21.653Z,23.17
2023-02-16T18:28:51.276Z,23.92
2023-02-16T18:31:18.649Z,23.77
2023-02-16T18:33:51.873Z,22.85
2023-02-16T18:36:19.191Z,23.10
2023-02-16T18:38:51.549Z,22.20
2023-02-16T18:41:18.956Z,22.20
2023-02-16T18:43:46.277Z,21.23
2023-02-16T18:46:15.924Z,21.75
2023-02-16T18:48:43.300Z,22.80
2023-02-16T18:51:11.424Z,20.65
2023-02-16T18:53:39.077Z,20.45
2023-02-16T18:56:08.258Z,20.55
2023-02-16T18:58:35.919Z,18.92
2023-02-16T19:01:29.706Z,19.83
2023-02-16T19:04:00.491Z,19.40
2023-02-16T19:06:32.862Z,19.70
2023-02-16T19:09:01.228Z,19.58
2023-02-16T19:11:30.749Z,18.75
2023-02-16T19:13:58.120Z,19.10
2023-02-16T19:16:25.526Z,19.65
2023-02-16T19:18:52.798Z,29.33
2023-02-16T19:21:25.000Z,29.98
2023-02-16T19:23:52.355Z,21.98
2023-02-16T19:26:19.947Z,20.65
2023-02-16T19:28:47.717Z,19.58
2023-02-16T19:31:33.566Z,20.10
2023-02-16T19:34:01.316Z,19.58
2023-02-16T19:36:31.471Z,19.17
2023-02-16T19:38:58.954Z,18.85
2023-02-16T19:41:29.339Z,19.98
2023-02-16T19:43:59.630Z,18.70
2023-02-16T19:46:30.556Z,19.13
2023-02-16T19:48:58.854Z,19.20
2023-02-16T19:51:29.674Z,20.75
2023-02-16T19:53:57.080Z,21.27
2023-02-16T19:56:25.899Z,20.85
2023-02-16T19:58:54.102Z,22.08
2023-02-16T20:01:24.087Z,22.88
2023-02-16T20:03:52.316Z,22.85
2023-02-16T20:06:26.161Z,24.10
2023-02-16T20:08:57.543Z,25.85
2023-02-16T20:11:26.635Z,24.52
2023-02-16T20:14:02.450Z,24.60
2023-02-16T20:16:34.796Z,24.25
2023-02-16T20:19:02.201Z,22.80
2023-02-16T20:21:35.477Z,22.90
2023-02-16T20:24:06.194Z,23.13
2023-02-16T20:26:42.093Z,22.38
2023-02-16T20:29:14.990Z,22.10
2023-02-16T20:31:58.798Z,27.50
2023-02-16T20:34:30.623Z,24.48
2023-02-16T20:39:28.579Z,26.02
2023-02-16T20:41:58.241Z,24.38
2023-02-16T20:44:26.597Z,24.17
2023-02-16T20:46:54.036Z,23.42
2023-02-16T20:49:21.389Z,23.77
2023-02-16T20:51:50.983Z,24.13
2023-02-16T20:54:18.437Z,23.70
2023-02-16T20:56:45.877Z,25.30
2023-02-16T20:59:13.260Z,25.00
2023-02-16T21:01:43.745Z,25.00
2023-02-16T21:04:13.638Z,23.25
2023-02-16T21:06:41.822Z,21.67
2023-02-16T21:09:10.308Z,21.92
2023-02-16T21:11:38.731Z,20.75
2023-02-16T21:14:09.817Z,20.90
2023-02-16T21:16:37.643Z,20.65
2023-02-16T21:19:11.747Z,20.65
2023-02-16T21:21:47.031Z,20.00
2023-02-16T21:24:14.283Z,20.73
2023-02-16T21:26:41.616Z,21.20
2023-02-16T21:29:11.178Z,21.08
2023-02-16T21:31:38.724Z,20.15
2023-02-16T21:34:08.934Z,21.77
2023-02-16T21:36:59.658Z,22.40
2023-02-16T21:39:55.829Z,22.65
2023-02-16T21:42:25.981Z,20.98
2023-02-16T21:45:12.398Z,21.58
2023-02-16T21:48:06.525Z,22.55
2023-02-16T21:50:36.669Z,22.40
2023-02-16T21:53:04.749Z,21.92
2023-02-16T21:55:50.962Z,21.20
2023-02-16T21:58:18.301Z,22.67
2023-02-16T22:00:52.366Z,21.33
2023-02-16T22:03:20.607Z,23.42
2023-02-16T22:05:48.149Z,22.58
2023-02-16T22:08:15.491Z,22.60
2023-02-16T22:10:44.940Z,22.23
2023-02-16T22:13:12.309Z,22.08
2023-02-16T22:15:39.587Z,22.60
2023-02-16T22:18:07.109Z,23.48
2023-02-16T22:20:36.895Z,23.33
2023-02-16T22:23:04.251Z,21.88
2023-02-16T22:25:33.785Z,22.42
2023-02-16T22:28:03.457Z,23.10
2023-02-16T22:30:30.759Z,23.70
2023-02-16T22:32:58.116Z,24.00
2023-02-16T22:35:27.694Z,24.65
2023-02-16T22:37:57.333Z,25.50
2023-02-16T22:40:27.158Z,24.35
2023-02-16T22:42:56.894Z,24.73
2023-02-16T22:45:24.243Z,25.35
2023-02-16T22:47:51.640Z,26.35
2023-02-16T22:50:18.954Z,25.85
2023-02-16T22:52:46.290Z,25.02
2023-02-16T22:55:13.929Z,25.02
2023-02-16T22:57:41.213Z,25.85
2023-02-16T23:00:14.641Z,24.77
2023-02-16T23:02:44.423Z,24.48
2023-02-16T23:05:11.859Z,23.92
2023-02-16T23:07:44.524Z,25.65
2023-02-16T23:10:11.906Z,24.33
2023-02-16T23:12:39.266Z,24.55
2023-02-16T23:15:09.447Z,24.88
2023-02-16T23:17:39.004Z,25.15
2023-02-16T23:20:06.908Z,25.23
2023-02-16T23:22:36.480Z,25.42
2023-02-16T23:25:22.828Z,27.15
2023-02-16T23:27:53.152Z,25.85
2023-02-16T23:30:20.692Z,25.95
2023-02-16T23:32:48.103Z,24.55
2023-02-16T23:35:15.590Z,25.55
2023-02-16T23:37:43.021Z,25.55
2023-02-16T23:40:10.774Z,25.55
2023-02-16T23:42:38.029Z,25.58
2023-02-16T23:45:07.876Z,25.10
2023-02-16T23:47:35.138Z,24.67
2023-02-16T23:50:02.384Z,25.52
2023-02-16T23:52:29.660Z,25.15
2023-02-16T23:54:56.940Z,25.08
2023-02-16T23:57:24.251Z,24.35
2023-02-16T23:59:54.110Z,24.38
